Time;durP1;ratioP1;P1;durP2;ratioP2;P2;SDS_P1;SDS_P2;PMS_P1;PMS_P2;Temp;Humidity;BMP_temperature;BMP_pressure;BME280_temperature;BME280_humidity;BME280_pressure;Samples;Min_cycle;Max_cycle;Signal;HPM_P1;HPM_P2
2024/02/11 00:01:43;;;;;;;5.15;1.95;;;;;;;9.34;100.00;95300.19;1226568;75;2900238;-64
2024/02/11 00:04:19;;;;;;;7.30;2.70;;;;;;;9.20;100.00;95301.44;1226450;75;2911640;-64
2024/02/11 00:06:52;;;;;;;7.50;2.70;;;;;;;9.16;100.00;95296.28;1223536;75;2914132;-64
2024/02/11 00:09:25;;;;;;;5.40;2.10;;;;;;;9.38;100.00;95292.44;1224625;75;2921892;-67
2024/02/11 00:11:59;;;;;;;7.85;2.80;;;;;;;9.29;100.00;95299.03;1223413;75;2924202;-64
2024/02/11 00:14:32;;;;;;;9.20;2.85;;;;;;;9.24;100.00;95291.69;1225528;75;2918135;-63
2024/02/11 00:17:05;;;;;;;6.50;2.45;;;;;;;9.18;100.00;95296.50;1222474;75;2943061;-64
2024/02/11 00:19:40;;;;;;;9.80;2.90;;;;;;;9.11;100.00;95299.84;1223682;75;2934378;-66
2024/02/11 00:22:16;;;;;;;13.40;2.90;;;;;;;9.03;100.00;95307.94;1225074;75;2917899;-63
2024/02/11 00:24:49;;;;;;;7.10;2.90;;;;;;;9.04;100.00;95300.47;1224500;75;2879023;-64
2024/02/11 00:27:22;;;;;;;6.55;2.35;;;;;;;9.08;100.00;95298.91;1196530;75;5206111;-66
2024/02/11 00:29:54;;;;;;;8.90;2.85;;;;;;;9.02;100.00;95297.53;1224600;75;2916379;-64
2024/02/11 00:32:27;;;;;;;9.50;2.85;;;;;;;9.11;100.00;95291.66;1225512;75;2917265;-65
2024/02/11 00:35:03;;;;;;;9.55;3.20;;;;;;;9.03;100.00;95291.56;1225022;75;2917906;-66
2024/02/11 00:37:36;;;;;;;6.00;2.55;;;;;;;9.04;100.00;95289.56;1225105;75;2919593;-66
2024/02/11 00:40:11;;;;;;;9.15;3.25;;;;;;;9.12;100.00;95299.34;1223140;75;2914733;-68
2024/02/11 00:42:45;;;;;;;9.95;2.95;;;;;;;9.07;100.00;95292.00;1225088;75;2915684;-66
2024/02/11 00:45:18;;;;;;;8.35;2.20;;;;;;;9.06;100.00;95297.97;1224542;75;2918046;-64
2024/02/11 00:47:51;;;;;;;3.90;2.40;;;;;;;9.09;100.00;95305.09;1225851;75;2916211;-66
2024/02/11 00:50:28;;;;;;;9.05;2.50;;;;;;;9.08;100.00;95304.38;1226055;75;2913311;-62
2024/02/11 00:53:01;;;;;;;6.35;2.85;;;;;;;9.11;100.00;95308.03;1189456;75;5824263;-64
2024/02/11 00:55:35;;;;;;;7.80;2.90;;;;;;;8.98;100.00;95299.84;1224327;75;2916939;-63
2024/02/11 00:58:09;;;;;;;9.85;3.30;;;;;;;8.97;100.00;95310.00;1224420;75;2940477;-64
2024/02/11 01:00:44;;;;;;;10.60;2.90;;;;;;;9.00;100.00;95310.97;1222304;75;2946097;-65
2024/02/11 01:03:17;;;;;;;6.55;2.45;;;;;;;9.03;100.00;95307.94;1226465;75;2905377;-64
2024/02/11 01:05:52;;;;;;;4.90;2.35;;;;;;;9.03;100.00;95313.38;1224035;75;2973960;-64
2024/02/11 01:08:25;;;;;;;8.45;3.10;;;;;;;9.03;100.00;95307.19;1224828;75;2947241;-65
2024/02/11 01:10:58;;;;;;;7.80;2.60;;;;;;;9.12;100.00;95298.59;1224150;75;2915319;-64
2024/02/11 01:13:32;;;;;;;7.55;2.40;;;;;;;9.05;100.00;95301.97;1224821;75;2916073;-65
2024/02/11 01:16:05;;;;;;;7.80;2.40;;;;;;;9.22;100.00;95307.84;1223557;75;3048978;-63
2024/02/11 01:18:38;;;;;;;6.50;2.45;;;;;;;9.09;100.00;95300.38;1225543;75;2915060;-63
2024/02/11 01:21:14;;;;;;;8.35;3.00;;;;;;;9.07;100.00;95300.19;1224677;75;2916608;-65
2024/02/11 01:23:47;;;;;;;8.30;2.60;;;;;;;9.05;100.00;95304.69;1226007;75;2919246;-63
2024/02/11 01:26:20;;;;;;;8.95;2.90;;;;;;;9.05;100.00;95299.22;1225600;75;2915048;-66
2024/02/11 01:28:52;;;;;;;6.20;2.25;;;;;;;9.14;100.00;95296.81;1225278;75;2912774;-62
2024/02/11 01:31:25;;;;;;;4.40;2.25;;;;;;;9.19;100.00;95306.19;1224318;75;2908290;-62
2024/02/11 01:33:58;;;;;;;6.00;2.35;;;;;;;9.16;100.00;95297.03;1224063;75;2910566;-63
2024/02/11 01:36:34;;;;;;;3.90;2.10;;;;;;;9.22;100.00;95291.47;1225890;75;2915509;-64
2024/02/11 01:39:07;;;;;;;6.55;2.25;;;;;;;9.24;100.00;95288.97;1226346;75;2915410;-64
2024/02/11 01:41:40;;;;;;;7.30;1.90;;;;;;;9.22;100.00;95293.47;1225547;75;2911520;-63
2024/02/11 01:44:15;;;;;;;4.70;1.80;;;;;;;9.32;100.00;95289.06;1225928;75;2909958;-65
2024/02/11 01:46:49;;;;;;;2.65;1.55;;;;;;;9.44;100.00;95289.59;1225132;75;2915439;-63
2024/02/11 01:49:22;;;;;;;2.05;1.10;;;;;;;9.54;100.00;95285.16;1225640;75;2911665;-63
2024/02/11 01:52:00;;;;;;;1.80;1.25;;;;;;;9.71;100.00;95282.81;1225970;75;2914095;-66
2024/02/11 01:54:33;;;;;;;2.30;0.80;;;;;;;9.68;100.00;95277.69;1226424;75;2908311;-62
2024/02/11 01:57:07;;;;;;;2.75;1.40;;;;;;;9.49;100.00;95281.28;1226259;75;2916864;-62
2024/02/11 01:59:40;;;;;;;2.70;1.30;;;;;;;9.69;100.00;95276.41;1225952;75;2919605;-64
2024/02/11 02:02:16;;;;;;;1.70;1.10;;;;;;;9.71;100.00;95271.16;1226318;75;2909977;-63
2024/02/11 02:04:51;;;;;;;4.70;1.90;;;;;;;9.31;100.00;95261.03;1225434;75;2919120;-61
2024/02/11 02:07:27;;;;;;;5.65;2.50;;;;;;;9.27;100.00;95259.88;1225907;75;2910970;-63
2024/02/11 02:10:01;;;;;;;3.80;2.00;;;;;;;9.46;100.00;95255.03;1225607;75;2913494;-65
2024/02/11 02:12:34;;;;;;;3.85;1.30;;;;;;;9.70;100.00;95256.06;1225904;75;2909994;-63
2024/02/11 02:15:08;;;;;;;2.25;1.45;;;;;;;9.58;100.00;95250.06;1225663;75;2912242;-63
2024/02/11 02:17:41;;;;;;;2.25;1.30;;;;;;;9.69;100.00;95240.91;1225106;75;2915759;-66
2024/02/11 02:20:15;;;;;;;1.65;0.80;;;;;;;9.77;100.00;95236.28;1225680;75;2915374;-63
2024/02/11 02:22:51;;;;;;;1.40;0.80;;;;;;;9.65;100.00;95233.03;1224906;75;2916239;-64
2024/02/11 02:25:24;;;;;;;0.90;0.80;;;;;;;9.71;100.00;95230.91;1224556;75;2915920;-64
2024/02/11 02:27:57;;;;;;;1.95;0.90;;;;;;;9.64;100.00;95228.81;1223509;75;2914974;-65
2024/02/11 02:30:30;;;;;;;1.00;0.70;;;;;;;9.67;100.00;95235.22;1226239;75;2838825;-64
2024/02/11 02:33:03;;;;;;;0.75;0.70;;;;;;;9.68;100.00;95234.72;1225209;67;2943932;-63
2024/02/11 02:35:36;;;;;;;4.35;1.00;;;;;;;9.58;100.00;95218.03;1225142;75;2914434;-64
2024/02/11 02:38:11;;;;;;;1.60;0.90;;;;;;;9.72;100.00;95220.75;1225169;75;2924812;-66
2024/02/11 02:40:45;;;;;;;1.60;1.10;;;;;;;9.56;100.00;95217.81;1224793;75;2913147;-64
2024/02/11 02:43:18;;;;;;;1.55;0.95;;;;;;;9.62;100.00;95206.03;1224118;75;2921391;-64
2024/02/11 02:45:51;;;;;;;1.70;0.95;;;;;;;9.51;100.00;95204.28;1225354;75;2915143;-66
2024/02/11 02:48:24;;;;;;;1.75;1.10;;;;;;;9.49;100.00;95204.06;1225868;75;2913404;-66
2024/02/11 02:50:57;;;;;;;4.00;0.95;;;;;;;9.68;100.00;95206.66;1225520;75;2913820;-64
2024/02/11 02:53:32;;;;;;;0.90;0.70;;;;;;;9.59;100.00;95200.38;1224739;75;2921821;-64
2024/02/11 02:56:05;;;;;;;1.45;0.80;;;;;;;9.71;100.00;95200.88;1225497;75;2921631;-64
2024/02/11 02:58:38;;;;;;;0.95;0.70;;;;;;;9.71;100.00;95200.88;1225110;75;2927160;-62
2024/02/11 03:01:11;;;;;;;1.80;0.65;;;;;;;9.64;100.00;95196.06;1225837;75;2921067;-64
2024/02/11 03:03:47;;;;;;;2.35;0.90;;;;;;;9.52;100.00;95192.81;1226004;75;2911654;-65
2024/02/11 03:06:20;;;;;;;1.25;0.80;;;;;;;9.60;100.00;95195.66;1225538;75;2915653;-64
2024/02/11 03:08:57;;;;;;;2.05;1.05;;;;;;;9.37;100.00;95209.75;1225850;75;2926344;-64
2024/02/11 03:11:30;;;;;;;3.10;1.10;;;;;;;9.52;100.00;95206.47;1225717;75;2915800;-67
2024/02/11 03:14:03;;;;;;;1.35;1.10;;;;;;;9.61;100.00;95199.84;1225243;75;2950442;-64
2024/02/11 03:16:36;;;;;;;2.15;0.80;;;;;;;9.69;100.00;95200.69;1225319;75;2922532;-63
2024/02/11 03:19:08;;;;;;;3.35;0.80;;;;;;;9.69;100.00;95203.41;1225080;75;2920131;-62
2024/02/11 03:21:41;;;;;;;0.90;0.60;;;;;;;9.69;100.00;95205.38;1224543;75;2917804;-62
2024/02/11 03:24:17;;;;;;;1.15;0.60;;;;;;;9.59;100.00;95207.84;1226234;75;2915063;-64
2024/02/11 03:26:50;;;;;;;3.45;0.95;;;;;;;9.60;100.00;95193.66;1225229;75;2916196;-65
2024/02/11 03:29:22;;;;;;;0.90;0.50;;;;;;;9.68;100.00;95198.47;1226376;75;2908238;-66
2024/02/11 03:31:55;;;;;;;1.40;0.70;;;;;;;9.52;100.00;95197.56;1225502;75;2913007;-63
2024/02/11 03:34:28;;;;;;;1.30;0.70;;;;;;;9.56;100.00;95192.50;1225124;75;2917913;-62
2024/02/11 03:37:01;;;;;;;1.75;0.90;;;;;;;9.59;100.00;95194.91;1224527;75;2922254;-63
2024/02/11 03:39:36;;;;;;;2.75;0.90;;;;;;;9.60;100.00;95201.84;1225445;75;2910684;-65
2024/02/11 03:42:09;;;;;;;0.60;0.60;;;;;;;9.64;100.00;95190.59;1225267;75;2919839;-64
2024/02/11 03:44:42;;;;;;;1.55;0.90;;;;;;;9.53;100.00;95190.84;1225337;75;2916087;-65
2024/02/11 03:47:15;;;;;;;1.65;0.85;;;;;;;9.57;100.00;95186.53;1225924;75;2918728;-65
2024/02/11 03:49:48;;;;;;;1.45;1.00;;;;;;;9.55;100.00;95180.13;1224588;75;2915420;-62
2024/02/11 03:52:20;;;;;;;1.45;1.00;;;;;;;9.53;100.00;95183.38;1224936;75;2924955;-66
2024/02/11 03:54:57;;;;;;;1.80;1.00;;;;;;;9.50;100.00;95175.50;1226129;75;2919232;-64
2024/02/11 03:57:29;;;;;;;2.05;0.90;;;;;;;9.50;100.00;95170.78;1224909;75;2918487;-64
2024/02/11 04:00:05;;;;;;;4.00;1.20;;;;;;;9.55;100.00;95161.00;1225140;75;2913058;-65
2024/02/11 04:02:38;;;;;;;1.50;1.00;;;;;;;9.53;100.00;95169.72;1224810;75;2912520;-67
2024/02/11 04:05:15;;;;;;;1.15;1.05;;;;;;;9.60;100.00;95171.06;1224349;75;2919702;-64
2024/02/11 04:07:50;;;;;;;1.85;0.85;;;;;;;9.53;100.00;95167.00;1224703;75;2922619;-63
2024/02/11 04:10:28;;;;;;;1.40;0.70;;;;;;;9.56;100.00;95163.19;1224332;75;2914808;-65
2024/02/11 04:13:01;;;;;;;0.80;0.80;;;;;;;9.53;100.00;95163.53;1224978;75;2914624;-65
2024/02/11 04:15:35;;;;;;;1.20;0.90;;;;;;;9.55;100.00;95161.75;1225257;75;2913929;-66
2024/02/11 04:18:12;;;;;;;2.15;0.50;;;;;;;9.51;100.00;95166.78;1225529;75;2922627;-63
2024/02/11 04:20:46;;;;;;;1.30;0.85;;;;;;;9.50;100.00;95159.88;1225240;75;2923405;-62
2024/02/11 04:23:19;;;;;;;1.10;0.95;;;;;;;9.54;100.00;95151.34;1224950;75;2919483;-64
2024/02/11 04:25:55;;;;;;;1.40;0.80;;;;;;;9.46;100.00;95158.72;1225195;75;2924821;-65
2024/02/11 04:28:28;;;;;;;2.90;0.90;;;;;;;9.41;100.00;95163.03;1224311;67;2924250;-65
2024/02/11 04:31:03;;;;;;;1.15;0.80;;;;;;;9.39;100.00;95152.63;1225231;75;2926985;-62
2024/02/11 04:33:36;;;;;;;1.40;0.80;;;;;;;9.39;100.00;95155.38;1225487;75;2925535;-63
2024/02/11 04:36:11;;;;;;;2.55;1.10;;;;;;;9.30;100.00;95152.34;1224787;75;2919550;-65
2024/02/11 04:38:44;;;;;;;2.40;1.20;;;;;;;9.37;100.00;95152.41;1225772;75;2917225;-66
2024/02/11 04:41:20;;;;;;;2.70;1.25;;;;;;;9.44;100.00;95153.03;1226082;75;2914339;-67
2024/02/11 04:43:52;;;;;;;1.95;1.10;;;;;;;9.33;100.00;95154.75;1225849;75;2914384;-64
2024/02/11 04:46:26;;;;;;;2.00;1.35;;;;;;;9.37;100.00;95157.88;1225488;75;2917314;-65
2024/02/11 04:48:59;;;;;;;2.55;1.30;;;;;;;9.39;100.00;95154.63;1225253;75;2918700;-65
2024/02/11 04:51:32;;;;;;;1.00;0.90;;;;;;;9.47;100.00;95155.44;1225076;75;2922785;-64
2024/02/11 04:54:05;;;;;;;1.50;0.70;;;;;;;9.46;100.00;95161.44;1224992;75;2920837;-62
2024/02/11 04:56:41;;;;;;;1.10;0.80;;;;;;;9.48;100.00;95154.19;1224401;75;2924886;-66
2024/02/11 04:59:15;;;;;;;1.00;0.85;;;;;;;9.45;100.00;95146.31;1225086;75;2913181;-63
2024/02/11 05:01:48;;;;;;;0.70;0.60;;;;;;;9.47;100.00;95149.25;1224850;75;2931717;-66
2024/02/11 05:04:20;;;;;;;1.35;0.90;;;;;;;9.42;100.00;95145.38;1224943;75;2917973;-63
2024/02/11 05:06:53;;;;;;;2.15;1.10;;;;;;;9.42;100.00;95144.66;1225838;75;2920827;-64
2024/02/11 05:09:27;;;;;;;1.55;0.95;;;;;;;9.35;100.00;95144.03;1226456;75;2918348;-64
2024/02/11 05:12:02;;;;;;;1.65;0.70;;;;;;;9.46;100.00;95142.34;1224694;75;2910022;-65
2024/02/11 05:14:35;;;;;;;1.25;0.90;;;;;;;9.44;100.00;95137.41;1225821;75;2918844;-64
2024/02/11 05:17:09;;;;;;;1.95;0.70;;;;;;;9.49;100.00;95130.34;1225867;75;2923951;-65
2024/02/11 05:19:42;;;;;;;1.00;0.70;;;;;;;9.45;100.00;95130.66;1225533;75;2929007;-64
2024/02/11 05:22:15;;;;;;;1.15;0.50;;;;;;;9.49;100.00;95139.25;1225440;75;2912396;-66
2024/02/11 05:24:48;;;;;;;0.90;0.70;;;;;;;9.50;100.00;95140.75;1221893;75;3005477;-62
2024/02/11 05:27:23;;;;;;;1.00;0.75;;;;;;;9.42;100.00;95139.91;1224935;75;2916275;-67
2024/02/11 05:29:56;;;;;;;1.30;0.70;;;;;;;9.49;100.00;95144.72;1223406;75;2994592;-64
2024/02/11 05:32:30;;;;;;;0.50;0.50;;;;;;;9.45;100.00;95136.13;1225573;75;2919445;-63
2024/02/11 05:35:09;;;;;;;1.30;0.75;;;;;;;9.41;100.00;95140.47;1225935;75;2907326;-64
2024/02/11 05:37:41;;;;;;;1.05;0.70;;;;;;;9.46;100.00;95137.59;1225688;75;2913913;-65
2024/02/11 05:40:15;;;;;;;1.60;0.85;;;;;;;9.49;100.00;95130.34;1226218;67;2912044;-64
2024/02/11 05:42:50;;;;;;;1.00;0.90;;;;;;;9.48;100.00;95142.53;1225518;75;2923283;-66
2024/02/11 05:45:24;;;;;;;1.00;0.75;;;;;;;9.49;100.00;95139.25;1225136;75;2917662;-63
2024/02/11 05:47:57;;;;;;;0.90;0.80;;;;;;;9.49;100.00;95138.53;1225908;75;2918312;-62
2024/02/11 05:50:30;;;;;;;0.90;0.60;;;;;;;9.48;100.00;95139.81;1223962;75;2917051;-66
2024/02/11 05:53:04;;;;;;;0.70;0.60;;;;;;;9.50;100.00;95135.28;1225456;75;2922734;-63
2024/02/11 05:55:38;;;;;;;1.65;0.85;;;;;;;9.49;100.00;95139.25;1225929;75;2926278;-63
2024/02/11 05:58:13;;;;;;;0.65;0.65;;;;;;;9.51;100.00;95142.19;1225547;75;2920885;-66
2024/02/11 06:00:46;;;;;;;0.80;0.80;;;;;;;9.49;100.00;95141.28;1225453;75;2923592;-64
2024/02/11 06:03:20;;;;;;;1.25;0.80;;;;;;;9.50;100.00;95146.22;1224588;67;2923450;-65
2024/02/11 06:05:53;;;;;;;1.45;0.90;;;;;;;9.46;100.00;95147.78;1225174;75;2921018;-64
2024/02/11 06:08:27;;;;;;;1.05;0.90;;;;;;;9.41;100.00;95149.38;1225728;75;2915410;-62
2024/02/11 06:10:59;;;;;;;0.95;0.70;;;;;;;9.47;100.00;95144.50;1225566;75;2914734;-65
2024/02/11 06:13:35;;;;;;;1.50;0.80;;;;;;;9.48;100.00;95153.47;1225000;67;2916412;-65
2024/02/11 06:16:11;;;;;;;1.20;0.70;;;;;;;9.46;100.00;95150.53;1224625;75;2923621;-65
2024/02/11 06:18:43;;;;;;;1.00;0.80;;;;;;;9.51;100.00;95152.41;1224442;75;2918818;-63
2024/02/11 06:21:16;;;;;;;0.85;0.75;;;;;;;9.48;100.00;95151.47;1224921;75;2916046;-63
2024/02/11 06:23:49;;;;;;;1.25;0.90;;;;;;;9.48;100.00;95159.66;1223384;75;2923778;-61
2024/02/11 06:26:22;;;;;;;1.45;0.80;;;;;;;9.50;100.00;95164.56;1224148;75;2909641;-63
2024/02/11 06:28:58;;;;;;;1.00;0.90;;;;;;;9.46;100.00;95158.72;1223970;75;2919612;-65
2024/02/11 06:31:31;;;;;;;1.75;1.05;;;;;;;9.44;100.00;95167.44;1224018;75;2918938;-63
2024/02/11 06:34:04;;;;;;;1.15;1.00;;;;;;;9.47;100.00;95176.56;1225486;75;2912665;-65
2024/02/11 06:36:39;;;;;;;1.30;1.00;;;;;;;9.41;100.00;95176.69;1224227;75;2917646;-66
2024/02/11 06:39:13;;;;;;;1.00;0.90;;;;;;;9.47;100.00;95168.38;1223706;75;2917177;-63
2024/02/11 06:41:47;;;;;;;1.85;1.20;;;;;;;9.46;100.00;95169.66;1209369;75;4067115;-65
2024/02/11 06:44:26;;;;;;;1.75;1.05;;;;;;;9.48;100.00;95175.31;1224277;75;2931892;-62
2024/02/11 06:46:59;;;;;;;0.95;0.85;;;;;;;9.51;100.00;95174.25;1188122;75;5766080;-63
2024/02/11 06:49:32;;;;;;;1.20;0.90;;;;;;;9.53;100.00;95190.84;1223752;75;2916427;-64
2024/02/11 06:52:05;;;;;;;1.05;0.90;;;;;;;9.53;100.00;95191.56;1224858;75;2914709;-66
2024/02/11 06:54:39;;;;;;;0.95;0.85;;;;;;;9.55;100.00;95188.31;1225157;75;2918770;-66
2024/02/11 06:57:14;;;;;;;1.15;0.70;;;;;;;9.57;100.00;95192.00;1224971;75;2919138;-64
2024/02/11 06:59:50;;;;;;;1.00;0.90;;;;;;;9.57;100.00;95192.00;1225423;75;2913824;-65
2024/02/11 07:02:22;;;;;;;1.10;0.90;;;;;;;9.60;100.00;95192.94;1225541;75;2913711;-64
2024/02/11 07:04:55;;;;;;;2.40;0.90;;;;;;;9.60;100.00;95190.19;1224791;75;2912882;-65
2024/02/11 07:07:28;;;;;;;1.10;0.85;;;;;;;9.60;100.00;95195.66;1224228;75;2919438;-65
2024/02/11 07:10:01;;;;;;;0.90;0.80;;;;;;;9.63;100.00;95194.59;1225181;75;2921332;-62
2024/02/11 07:12:34;;;;;;;1.05;0.90;;;;;;;9.62;100.00;95195.88;1224801;75;2913491;-66
2024/02/11 07:15:12;;;;;;;1.10;1.00;;;;;;;9.59;100.00;95196.91;1225535;75;2913921;-63
2024/02/11 07:17:44;;;;;;;1.30;1.00;;;;;;;9.59;100.00;95197.63;1225721;75;2913060;-64
2024/02/11 07:20:17;;;;;;;1.40;1.05;;;;;;;9.60;100.00;95207.31;1223819;75;2923071;-63
2024/02/11 07:22:50;;;;;;;1.35;1.00;;;;;;;9.58;100.00;95203.66;1224669;75;2918620;-66
2024/02/11 07:25:23;;;;;;;1.00;0.80;;;;;;;9.67;100.00;95202.44;1224672;75;2919902;-62
2024/02/11 07:27:56;;;;;;;1.70;1.20;;;;;;;9.66;100.00;95206.47;1224647;75;2926221;-64
2024/02/11 07:30:32;;;;;;;0.95;0.85;;;;;;;9.64;100.00;95201.50;1224680;75;2914992;-65
2024/02/11 07:33:07;;;;;;;1.20;1.10;;;;;;;9.60;100.00;95207.31;1224331;75;2925356;-67
2024/02/11 07:35:40;;;;;;;1.95;1.05;;;;;;;9.58;100.00;95198.19;1224825;75;2918394;-63
2024/02/11 07:38:13;;;;;;;1.10;0.90;;;;;;;9.73;100.00;95206.53;1225251;75;2912316;-64
2024/02/11 07:40:49;;;;;;;1.25;1.00;;;;;;;9.76;100.00;95213.66;1225445;75;2920226;-62
2024/02/11 07:43:25;;;;;;;1.65;1.00;;;;;;;9.80;100.00;95205.16;1225850;75;2911334;-65
2024/02/11 07:46:01;;;;;;;1.55;0.95;;;;;;;9.79;100.00;95207.16;1225776;75;2914005;-64
2024/02/11 07:48:34;;;;;;;1.30;1.10;;;;;;;9.83;100.00;95206.81;1225695;75;2914169;-63
2024/02/11 07:51:09;;;;;;;1.20;1.10;;;;;;;9.81;100.00;95209.34;1225931;75;2913881;-66
2024/02/11 07:53:42;;;;;;;1.60;1.10;;;;;;;9.84;100.00;95213.00;1226493;75;2908102;-64
2024/02/11 07:56:17;;;;;;;1.40;0.90;;;;;;;9.85;100.00;95206.31;1224520;75;2918088;-63
2024/02/11 07:58:50;;;;;;;1.10;1.00;;;;;;;9.82;100.00;95208.81;1225541;75;2922377;-64
2024/02/11 08:01:26;;;;;;;1.20;0.90;;;;;;;9.85;100.00;95209.03;1222448;75;2911858;-67
2024/02/11 08:03:58;;;;;;;1.30;1.20;;;;;;;9.70;100.00;95213.06;1223520;75;2929314;-62
2024/02/11 08:06:32;;;;;;;2.10;1.20;;;;;;;9.77;100.00;95212.41;1199623;67;5486240;-64
2024/02/11 08:09:09;;;;;;;1.50;1.25;;;;;;;9.86;100.00;95208.50;1221562;75;2909504;-64
2024/02/11 08:11:42;;;;;;;2.35;1.55;;;;;;;9.94;100.00;95212.03;1225213;75;2914344;-63
2024/02/11 08:14:15;;;;;;;1.45;1.10;;;;;;;9.93;100.00;95207.84;1221825;75;3020575;-66
2024/02/11 08:16:50;;;;;;;1.30;1.00;;;;;;;9.97;100.00;95210.25;1224167;75;2927939;-65
2024/02/11 08:19:23;;;;;;;1.65;1.45;;;;;;;10.03;100.00;95214.34;1225164;75;2916306;-64
2024/02/11 08:21:57;;;;;;;3.15;1.05;;;;;;;10.07;100.00;95210.53;1224301;75;2918316;-64
2024/02/11 08:24:30;;;;;;;1.30;1.00;;;;;;;10.09;100.00;95211.47;1225213;75;2920437;-64
2024/02/11 08:27:03;;;;;;;1.15;0.90;;;;;;;10.11;100.00;95210.94;1225317;75;2912441;-66
2024/02/11 08:29:36;;;;;;;1.25;1.15;;;;;;;10.18;100.00;95216.47;1225589;75;2913319;-65
2024/02/11 08:32:11;;;;;;;1.50;1.25;;;;;;;10.20;100.00;95213.22;1225394;75;2916535;-64
2024/02/11 08:34:44;;;;;;;2.45;1.40;;;;;;;10.22;100.00;95222.34;1225191;75;2919305;-65
2024/02/11 08:37:17;;;;;;;1.65;1.30;;;;;;;10.21;100.00;95217.41;1225317;75;2919245;-62
2024/02/11 08:39:50;;;;;;;1.55;1.30;;;;;;;10.26;100.00;95221.28;1225456;75;2920984;-66
2024/02/11 08:42:23;;;;;;;1.30;1.20;;;;;;;10.28;100.00;95216.03;1224862;75;2942851;-65
2024/02/11 08:44:56;;;;;;;1.45;1.20;;;;;;;10.34;100.00;95225.59;1225290;75;2912706;-63
2024/02/11 08:47:32;;;;;;;1.40;1.30;;;;;;;10.31;100.00;95220.44;1224544;75;2960070;-63
2024/02/11 08:50:04;;;;;;;1.10;1.00;;;;;;;10.39;100.00;95224.72;1225210;83;2913445;-66
2024/02/11 08:52:38;;;;;;;1.40;1.20;;;;;;;10.41;100.00;95229.63;1224874;75;2927207;-63
2024/02/11 08:55:13;;;;;;;1.05;1.00;;;;;;;10.41;100.00;95224.16;1225221;75;2910132;-64
2024/02/11 08:57:47;;;;;;;1.35;1.10;;;;;;;10.47;100.00;95235.00;1224729;75;2912638;-62
2024/02/11 09:00:22;;;;;;;1.20;1.10;;;;;;;10.50;100.00;95233.91;1225746;75;2916115;-66
2024/02/11 09:02:58;;;;;;;2.00;1.30;;;;;;;10.54;100.00;95235.06;1223204;75;2921825;-64
2024/02/11 09:05:31;;;;;;;1.30;1.20;;;;;;;10.56;100.00;95229.03;1224294;75;2941754;-66
2024/02/11 09:08:04;;;;;;;2.55;1.25;;;;;;;10.64;100.00;95238.06;1225286;75;2916717;-64
2024/02/11 09:10:36;;;;;;;1.55;1.35;;;;;;;10.62;100.00;95235.13;1224951;75;2916542;-65
2024/02/11 09:13:10;;;;;;;1.25;1.15;;;;;;;10.71;100.00;95242.13;1224976;75;2922029;-62
2024/02/11 09:15:44;;;;;;;1.80;1.30;;;;;;;10.63;100.00;95242.03;1224858;75;2915145;-64
2024/02/11 09:18:22;;;;;;;1.50;1.30;;;;;;;10.40;100.00;95248.06;1225440;75;2915405;-63
2024/02/11 09:20:55;;;;;;;1.40;1.30;;;;;;;10.35;100.00;95248.94;1224838;75;2926112;-65
2024/02/11 09:23:28;;;;;;;2.85;2.45;;;;;;;10.21;100.00;95250.22;1224321;75;2922003;-64
2024/02/11 09:26:02;;;;;;;2.30;1.80;;;;;;;10.10;100.00;95250.47;1223797;75;2931302;-67
2024/02/11 09:28:35;;;;;;;1.65;1.50;;;;;;;10.05;100.00;95257.53;1225268;75;2916914;-66
2024/02/11 09:31:09;;;;;;;2.95;1.80;;;;;;;9.91;100.00;95259.56;1223945;75;2914404;-65
2024/02/11 09:33:45;;;;;;;2.80;2.00;;;;;;;9.98;100.00;95266.38;1224367;75;2911243;-66
2024/02/11 09:36:18;;;;;;;3.35;1.90;;;;;;;9.95;100.00;95267.44;1223613;75;2930280;-64
2024/02/11 09:38:50;;;;;;;1.75;1.60;;;;;;;9.78;100.00;95265.78;1224515;75;2922544;-65
2024/02/11 09:41:23;;;;;;;2.85;2.30;;;;;;;9.57;100.00;95273.94;1224428;75;2910248;-65
2024/02/11 09:43:59;;;;;;;3.65;2.85;;;;;;;9.51;100.00;95280.75;1224986;75;2918626;-64
2024/02/11 09:46:35;;;;;;;4.80;2.30;;;;;;;9.53;100.00;95278.97;1224435;75;2921623;-64
2024/02/11 09:49:16;;;;;;;2.60;1.90;;;;;;;9.60;100.00;95274.88;1223718;75;2917553;-67
2024/02/11 09:51:50;;;;;;;2.10;1.90;;;;;;;9.75;100.00;95282.50;1224087;75;2946775;-64
2024/02/11 09:54:24;;;;;;;6.10;4.80;;;;;;;9.69;100.00;95279.16;1224480;75;2914802;-65
2024/02/11 09:56:57;;;;;;;3.45;2.80;;;;;;;9.74;100.00;95284.53;1224643;75;2915489;-65
2024/02/11 09:59:30;;;;;;;8.35;6.25;;;;;;;9.91;100.00;95281.44;1224477;75;2916098;-65
2024/02/11 10:02:07;;;;;;;5.25;4.00;;;;;;;9.73;100.00;95287.78;1221604;75;2921652;-64
2024/02/11 10:04:43;;;;;;;6.05;4.45;;;;;;;9.80;100.00;95284.41;1224647;75;2916524;-64
2024/02/11 10:07:27;;;;;;;5.55;4.35;;;;;;;9.84;100.00;95282.09;1224236;75;2917060;-62
2024/02/11 10:10:03;;;;;;;5.05;3.80;;;;;;;9.74;100.00;95283.75;1225013;75;2918286;-65
2024/02/11 10:12:40;;;;;;;3.70;3.00;;;;;;;9.65;100.00;95287.69;1225404;75;2933658;-65
2024/02/11 10:15:18;;;;;;;3.10;2.80;;;;;;;9.55;100.00;95286.66;1224471;75;2922962;-63
2024/02/11 10:17:51;;;;;;;2.70;2.45;;;;;;;9.53;100.00;95294.63;1225150;75;2925727;-64
2024/02/11 10:20:27;;;;;;;3.00;2.40;;;;;;;9.68;100.00;95292.09;1224256;75;2916003;-67
2024/02/11 10:23:02;;;;;;;2.60;2.20;;;;;;;9.67;100.00;95296.09;1224761;75;2869790;-63
2024/02/11 10:25:36;;;;;;;2.60;2.00;;;;;;;9.77;100.00;95294.38;1223529;75;2920133;-66
2024/02/11 10:28:09;;;;;;;2.75;2.25;;;;;;;9.75;100.00;95293.44;1223252;75;2939432;-63
2024/02/11 10:30:42;;;;;;;2.55;2.10;;;;;;;10.01;100.00;95298.84;1222227;67;3021913;-64
2024/02/11 10:33:16;;;;;;;3.40;2.35;;;;;;;9.68;100.00;95302.28;1219565;75;3110603;-61
2024/02/11 10:35:52;;;;;;;2.95;2.45;;;;;;;10.08;100.00;95296.72;1223295;75;2915648;-65
2024/02/11 10:38:25;;;;;;;3.30;2.80;;;;;;;9.71;100.00;95295.75;1223187;75;2920724;-64
2024/02/11 10:40:58;;;;;;;5.00;3.45;;;;;;;9.78;100.00;95290.38;1222754;75;2940397;-68
2024/02/11 10:43:32;;;;;;;4.10;3.05;;;;;;;9.93;100.00;95297.28;1224222;75;2894252;-67
2024/02/11 10:46:07;;;;;;;3.85;3.10;;;;;;;9.98;100.00;95288.22;1224359;75;2906035;-66
2024/02/11 10:48:39;;;;;;;5.55;3.45;;;;;;;9.70;100.00;95305.22;1224147;75;2922855;-64
2024/02/11 10:51:23;;;;;;;6.35;3.85;;;;;;;9.93;100.00;95300.03;1223743;75;2913694;-65
2024/02/11 10:54:01;;;;;;;6.35;3.05;;;;;;;10.38;100.00;95296.34;1223865;75;2925689;-65
2024/02/11 10:56:35;;;;;;;4.60;2.50;;;;;;;10.31;100.00;95289.53;1208492;75;4085357;-63
2024/02/11 10:59:20;;;;;;;3.95;2.40;;;;;;;10.01;100.00;95296.13;1222040;75;2922209;-64
2024/02/11 11:01:54;;;;;;;3.00;2.35;;;;;;;9.84;100.00;95298.47;1224884;75;2889802;-64
2024/02/11 11:04:29;;;;;;;2.75;2.25;;;;;;;10.01;100.00;95293.38;1223229;75;2950808;-65
2024/02/11 11:07:08;;;;;;;2.85;2.00;;;;;;;9.99;100.00;95300.66;1224312;75;2927724;-64
2024/02/11 11:09:40;;;;;;;;;;;;;;;10.14;100.00;95297.34;1226089;75;2919334;-68
2024/02/11 11:12:18;;;;;;;2.40;2.00;;;;;;;10.08;100.00;95299.47;1223894;75;2922049;-66
2024/02/11 11:14:51;;;;;;;2.70;2.10;;;;;;;10.14;100.00;95305.56;1208940;75;4196070;-63
2024/02/11 11:17:26;;;;;;;2.90;2.25;;;;;;;10.00;100.00;95299.38;1222124;75;2917957;-64
2024/02/11 11:20:01;;;;;;;4.35;2.60;;;;;;;10.11;100.00;95301.88;1224194;75;2923020;-62
2024/02/11 11:22:42;;;;;;;3.10;2.60;;;;;;;10.13;100.00;95298.63;1223843;75;2926422;-64
2024/02/11 11:25:15;;;;;;;2.95;2.40;;;;;;;9.97;100.00;95300.44;1222404;75;2926289;-64
2024/02/11 11:27:48;;;;;;;4.05;2.70;;;;;;;10.31;100.00;95299.75;1223485;75;2957468;-68
2024/02/11 11:30:21;;;;;;;2.75;2.30;;;;;;;10.36;100.00;95309.81;1223116;75;2902551;-64
2024/02/11 11:33:00;;;;;;;2.50;2.20;;;;;;;10.45;100.00;95303.91;1222907;75;2923883;-65
2024/02/11 11:35:34;;;;;;;;;;;;;;;10.51;100.00;95310.00;1225573;75;2913729;-67
2024/02/11 11:38:09;;;;;;;3.20;2.70;;;;;;;10.48;100.00;95302.81;1222127;75;2973670;-66
2024/02/11 11:40:42;;;;;;;3.65;2.65;;;;;;;10.38;100.00;95310.03;1223387;75;2922483;-65
2024/02/11 11:43:20;;;;;;;3.55;2.75;;;;;;;10.26;100.00;95312.25;1223340;75;2919156;-65
2024/02/11 11:45:59;;;;;;;3.20;2.00;;;;;;;10.51;100.00;95307.25;1224323;75;2917459;-65
2024/02/11 11:48:33;;;;;;;;;;;;;;;10.57;100.00;95304.38;1225855;75;2903517;-65